Awans, Belgium
Current Conditions -  °F | °C
As of 11:50 PM on Thursday 23 Oct 2014 (Local Time) from EBLG Reporting Station
Broken Clouds Broken Clouds  
Wind Chill: 50°   Ceiling: 3700
Heat Index: 50°   Visibility: 6mi
Dew Point: 46°   Wind: 8mph
Humidity: 87%   Direction: 190°S
Pressure: 30.21"   Gusts: NA
Location:  50.67°N, 5.46°E
Report Text: EBLG 232150Z 19007KT 9999 FEW030 BKN037 10/08 Q1023 NOSIG
Loading
Personal Weather Stations






























Interactive Weather Map New forecast layout! Learn more

10-Day Weather Forecast

Advertisements
Track Severe Weather on mobile